createdAt,value
2017-10-24T00:00:10.706Z,79.99
2017-10-24T00:01:23.337Z,79.99
2017-10-24T00:02:35.644Z,79.99
2017-10-24T00:03:47.964Z,79.9
2017-10-24T00:05:00.614Z,79.8
2017-10-24T00:06:13.243Z,79.71
2017-10-24T00:07:25.235Z,79.8
2017-10-24T00:08:37.554Z,79.71
2017-10-24T00:09:49.504Z,79.33
2017-10-24T00:11:01.772Z,79.23
2017-10-24T00:12:14.064Z,79.42
2017-10-24T00:13:26.368Z,79.14
2017-10-24T00:14:38.702Z,78.95
2017-10-24T00:15:51.013Z,78.85
2017-10-24T00:17:03.280Z,78.8
2017-10-24T00:18:14.949Z,78.38
2017-10-24T00:19:27.256Z,77.71
2017-10-24T00:20:38.912Z,77.18
2017-10-24T00:21:50.890Z,77.28
2017-10-24T00:23:02.882Z,76.99
2017-10-24T00:24:15.516Z,76.42
2017-10-24T00:25:27.815Z,76.71
2017-10-24T00:26:40.431Z,75.85
2017-10-24T00:27:52.413Z,75.38
2017-10-24T00:29:05.303Z,74.9
2017-10-24T00:30:17.952Z,75.09
2017-10-24T00:31:30.268Z,74.9
2017-10-24T00:32:42.265Z,74.62
2017-10-24T00:33:54.568Z,74.43
2017-10-24T00:35:06.880Z,74.15
2017-10-24T00:36:19.548Z,74.33
2017-10-24T00:37:32.170Z,74.15
2017-10-24T00:38:43.825Z,74.05
2017-10-24T00:39:56.134Z,74.33
2017-10-24T00:41:07.805Z,73.86
2017-10-24T00:42:19.781Z,73.71
2017-10-24T00:43:31.784Z,73.76
2017-10-24T00:44:44.103Z,73.9
2017-10-24T00:45:56.708Z,74.18
2017-10-24T00:47:09.345Z,73.9
2017-10-24T00:48:21.975Z,73.71
2017-10-24T00:49:34.600Z,73.8
2017-10-24T00:50:47.234Z,73.8
2017-10-24T00:51:59.852Z,73.71
2017-10-24T00:53:12.162Z,73.71
2017-10-24T00:54:24.466Z,73.61
2017-10-24T00:55:36.435Z,73.71
2017-10-24T00:56:49.029Z,73.8
2017-10-24T00:58:01.628Z,73.9
2017-10-24T00:59:13.968Z,74.18
2017-10-24T01:00:26.586Z,74.37
2017-10-24T01:01:39.464Z,74.56
2017-10-24T01:02:52.111Z,75.13
2017-10-24T01:04:04.426Z,74.75
2017-10-24T01:05:16.704Z,75.23
2017-10-24T01:06:29.323Z,75.13
2017-10-24T01:07:41.966Z,74.94
2017-10-24T01:08:54.592Z,75.13
2017-10-24T01:10:07.213Z,75.23
2017-10-24T01:11:19.540Z,74.85
2017-10-24T01:12:32.191Z,75.04
2017-10-24T01:13:44.490Z,75.23
2017-10-24T01:14:56.143Z,75.7
2017-10-24T01:16:08.465Z,76.08
2017-10-24T01:17:20.783Z,76.46
2017-10-24T01:18:33.399Z,76.18
2017-10-24T01:19:46.024Z,76.18
2017-10-24T01:20:58.644Z,75.99
2017-10-24T01:22:10.966Z,75.89
2017-10-24T01:23:23.266Z,75.13
2017-10-24T01:24:35.261Z,75.32
2017-10-24T01:25:47.901Z,75.23
2017-10-24T01:27:00.200Z,75.04
2017-10-24T01:28:12.858Z,74.56
2017-10-24T01:29:25.163Z,74.37
2017-10-24T01:30:37.791Z,74.08
2017-10-24T01:31:50.469Z,73.99
2017-10-24T01:33:03.107Z,73.9
2017-10-24T01:34:15.434Z,73.8
2017-10-24T01:35:27.762Z,73.61
2017-10-24T01:36:40.405Z,73.61
2017-10-24T01:37:53.031Z,72.85
2017-10-24T01:39:05.678Z,73.23
2017-10-24T01:40:17.987Z,73.23
2017-10-24T01:41:30.296Z,72.28
2017-10-24T01:42:42.923Z,72.47
2017-10-24T01:43:55.253Z,72.47
2017-10-24T01:45:07.874Z,72.19
2017-10-24T01:46:20.531Z,71.81
2017-10-24T01:47:32.856Z,71.9
2017-10-24T01:48:45.174Z,71.71
2017-10-24T01:49:57.813Z,71.62
2017-10-24T01:51:10.731Z,71.33
2017-10-24T01:52:23.361Z,71.37
2017-10-24T01:53:36.002Z,71.04
2017-10-24T01:54:48.622Z,71.23
2017-10-24T01:56:01.492Z,70.79
2017-10-24T01:57:14.139Z,70.79
2017-10-24T01:58:26.439Z,70.7
2017-10-24T01:59:39.067Z,70.32
2017-10-24T02:00:51.703Z,70.7
2017-10-24T02:02:04.330Z,70.7
2017-10-24T02:03:16.985Z,70.13
2017-10-24T02:04:29.608Z,70.32
2017-10-24T02:05:41.928Z,70.23
2017-10-24T02:06:54.581Z,70.13
2017-10-24T02:08:06.923Z,69.85
2017-10-24T02:09:19.251Z,69.85
2017-10-24T02:10:31.868Z,69.94
2017-10-24T02:11:44.206Z,69.94
2017-10-24T02:12:56.831Z,69.85
2017-10-24T02:14:09.131Z,69.66
2017-10-24T02:15:21.440Z,69.66
2017-10-24T02:16:34.064Z,69.66
2017-10-24T02:17:46.389Z,69.66
2017-10-24T02:18:58.378Z,69.66
2017-10-24T02:20:10.681Z,69.94
2017-10-24T02:21:23.343Z,69.75
2017-10-24T02:22:35.972Z,69.85
2017-10-24T02:23:48.271Z,69.75
2017-10-24T02:25:00.584Z,69.75
2017-10-24T02:26:12.588Z,70.13
2017-10-24T02:27:24.901Z,69.46
2017-10-24T02:28:37.528Z,69.75
2017-10-24T02:29:50.148Z,69.94
2017-10-24T02:31:02.118Z,69.75
2017-10-24T02:32:14.415Z,69.85
2017-10-24T02:33:26.756Z,69.75
2017-10-24T02:34:39.403Z,69.94
2017-10-24T02:35:52.023Z,69.85
2017-10-24T02:37:04.312Z,69.94
2017-10-24T02:38:16.286Z,69.94
2017-10-24T02:39:28.915Z,69.94
2017-10-24T02:40:41.560Z,69.94
2017-10-24T02:41:53.877Z,69.94
2017-10-24T02:43:05.875Z,69.94
2017-10-24T02:44:18.498Z,69.75
2017-10-24T02:45:31.143Z,69.94
2017-10-24T02:46:43.810Z,70.04
2017-10-24T02:47:56.431Z,69.66
2017-10-24T02:49:08.770Z,70.13
2017-10-24T02:50:21.075Z,69.94
2017-10-24T02:51:33.394Z,69.94
2017-10-24T02:52:45.694Z,69.94
2017-10-24T02:53:58.007Z,69.94
2017-10-24T02:55:10.659Z,70.13
2017-10-24T02:56:23.297Z,69.66
2017-10-24T02:57:35.295Z,69.75
2017-10-24T02:58:47.584Z,69.66
2017-10-24T03:00:00.217Z,69.75
2017-10-24T03:01:12.207Z,69.85
2017-10-24T03:02:24.820Z,69.94
2017-10-24T03:03:36.777Z,69.66
2017-10-24T03:04:49.135Z,69.66
2017-10-24T03:06:01.757Z,69.85
2017-10-24T03:07:14.044Z,69.88
2017-10-24T03:08:26.357Z,69.94
2017-10-24T03:09:39.026Z,69.75
2017-10-24T03:10:51.318Z,69.75
2017-10-24T03:12:03.618Z,69.98
2017-10-24T03:13:15.585Z,69.31
2017-10-24T03:14:27.885Z,69.88
2017-10-24T03:15:40.218Z,69.37
2017-10-24T03:16:52.522Z,69.69
2017-10-24T03:18:04.824Z,69.88
2017-10-24T03:19:17.464Z,69.98
2017-10-24T03:20:29.761Z,69.88
2017-10-24T03:21:42.080Z,69.69
2017-10-24T03:22:54.065Z,69.6
2017-10-24T03:24:06.376Z,69.21
2017-10-24T03:25:18.340Z,69.88
2017-10-24T03:26:30.982Z,69.6
2017-10-24T03:27:43.599Z,69.41
2017-10-24T03:28:56.211Z,69.41
2017-10-24T03:30:08.156Z,69.41
2017-10-24T03:31:20.448Z,69.5
2017-10-24T03:32:32.766Z,69.6
2017-10-24T03:33:45.386Z,69.88
2017-10-24T03:34:58.032Z,69.79
2017-10-24T03:36:10.656Z,69.6
2017-10-24T03:37:22.973Z,69.88
2017-10-24T03:38:35.276Z,69.88
2017-10-24T03:39:47.568Z,69.41
2017-10-24T03:40:59.564Z,69.41
2017-10-24T03:42:11.862Z,69.12
2017-10-24T03:43:23.855Z,69.02
2017-10-24T03:44:36.751Z,69.21
2017-10-24T03:45:48.739Z,69.6
2017-10-24T03:47:01.041Z,69.6
2017-10-24T03:48:13.377Z,69.31
2017-10-24T03:49:25.397Z,68.93
2017-10-24T03:50:37.671Z,69.02
2017-10-24T03:51:50.333Z,69.21
2017-10-24T03:53:02.995Z,69.12
2017-10-24T03:54:15.615Z,69.21
2017-10-24T03:55:27.918Z,69.21
2017-10-24T03:56:39.929Z,69.02
2017-10-24T03:57:52.252Z,69.12
2017-10-24T03:59:03.915Z,69.12
2017-10-24T04:00:16.218Z,69.31
2017-10-24T04:01:28.881Z,69.21
2017-10-24T04:02:41.203Z,69.31
2017-10-24T04:03:53.819Z,69.02
2017-10-24T04:05:06.481Z,69.31
2017-10-24T04:06:18.826Z,69.21
2017-10-24T04:07:30.807Z,69.41
2017-10-24T04:08:43.092Z,69.31
2017-10-24T04:09:55.402Z,69.31
2017-10-24T04:11:07.698Z,69.12
2017-10-24T04:12:19.694Z,69.21
2017-10-24T04:13:32.313Z,69.12
2017-10-24T04:14:43.992Z,69.02
2017-10-24T04:15:56.314Z,69.12
2017-10-24T04:17:08.875Z,69.21
2017-10-24T04:18:20.846Z,69.31
2017-10-24T04:19:33.452Z,69.41
2017-10-24T04:20:45.137Z,69.6
2017-10-24T04:21:57.786Z,69.41
2017-10-24T04:23:10.090Z,69.31
2017-10-24T04:24:22.740Z,69.44
2017-10-24T04:25:34.727Z,69.41
2017-10-24T04:26:47.352Z,69.5
2017-10-24T04:27:59.662Z,69.44
2017-10-24T04:29:11.986Z,69.41
2017-10-24T04:30:24.286Z,69.41
2017-10-24T04:31:36.624Z,69.5
2017-10-24T04:32:49.248Z,69.6
2017-10-24T04:34:01.895Z,69.92
2017-10-24T04:35:14.518Z,69.92
2017-10-24T04:36:26.814Z,69.73
2017-10-24T04:37:38.785Z,70.1
2017-10-24T04:38:51.680Z,69.92
2017-10-24T04:40:04.381Z,70.01
2017-10-24T04:41:16.373Z,70.1
2017-10-24T04:42:28.737Z,70.01
2017-10-24T04:43:41.038Z,69.82
2017-10-24T04:44:53.653Z,69.63
2017-10-24T04:46:06.255Z,70.01
2017-10-24T04:47:18.577Z,69.63
2017-10-24T04:48:30.898Z,69.82
2017-10-24T04:49:42.894Z,69.92
2017-10-24T04:50:55.225Z,69.92
2017-10-24T04:52:07.535Z,70.3
2017-10-24T04:53:19.859Z,70.3
2017-10-24T04:54:32.502Z,70.1
2017-10-24T04:55:44.816Z,69.73
2017-10-24T04:56:57.439Z,70.39
2017-10-24T04:58:10.068Z,70.1
2017-10-24T04:59:22.063Z,70.2
2017-10-24T05:00:34.931Z,70.1
2017-10-24T05:01:47.248Z,70.2
2017-10-24T05:02:59.571Z,70.01
2017-10-24T05:04:12.231Z,69.73
2017-10-24T05:05:24.861Z,69.92
2017-10-24T05:06:37.526Z,69.92
2017-10-24T05:07:50.155Z,70.1
2017-10-24T05:09:02.773Z,70.2
2017-10-24T05:10:15.388Z,70.01
2017-10-24T05:11:27.730Z,69.92
2017-10-24T05:12:40.017Z,70.01
2017-10-24T05:13:52.341Z,70.1
2017-10-24T05:15:04.631Z,70.1
2017-10-24T05:16:16.931Z,70.3
2017-10-24T05:17:28.619Z,70.01
2017-10-24T05:18:41.255Z,70.1
2017-10-24T05:19:53.260Z,70.1
2017-10-24T05:21:05.598Z,69.92
2017-10-24T05:22:18.473Z,70.1
2017-10-24T05:23:30.786Z,70.2
2017-10-24T05:24:43.085Z,70.1
2017-10-24T05:25:55.688Z,70.1
2017-10-24T05:27:08.323Z,70.2
2017-10-24T05:28:20.289Z,69.44
2017-10-24T05:29:32.578Z,69.92
2017-10-24T05:30:45.220Z,69.54
2017-10-24T05:31:57.515Z,69.92
2017-10-24T05:33:09.785Z,69.44
2017-10-24T05:34:22.055Z,70.01
2017-10-24T05:35:34.350Z,70.01
2017-10-24T05:36:46.974Z,70.1
2017-10-24T05:37:59.610Z,69.54
2017-10-24T05:39:12.233Z,70.01
2017-10-24T05:40:24.536Z,70.1
2017-10-24T05:41:36.848Z,70.01
2017-10-24T05:42:49.474Z,69.73
2017-10-24T05:44:01.786Z,69.73
2017-10-24T05:45:14.090Z,69.63
2017-10-24T05:46:26.711Z,69.73
2017-10-24T05:47:39.335Z,69.73
2017-10-24T05:48:51.954Z,69.63
2017-10-24T05:50:04.598Z,69.54
2017-10-24T05:51:16.614Z,69.35
2017-10-24T05:52:28.918Z,69.15
2017-10-24T05:53:41.569Z,69.15
2017-10-24T05:54:54.202Z,69.15
2017-10-24T05:56:06.509Z,69.35
2017-10-24T05:57:18.821Z,69.25
2017-10-24T05:58:30.821Z,69.35
2017-10-24T05:59:43.130Z,69.25
2017-10-24T06:00:55.426Z,69.06
2017-10-24T06:02:07.717Z,69.35
2017-10-24T06:03:20.028Z,69.06
2017-10-24T06:04:32.645Z,69.35
2017-10-24T06:05:44.929Z,69.06
2017-10-24T06:06:57.226Z,69.25
2017-10-24T06:08:09.857Z,69.25
2017-10-24T06:09:22.202Z,69.25
2017-10-24T06:10:34.802Z,69.06
2017-10-24T06:11:47.473Z,69.25
2017-10-24T06:13:00.071Z,69.06
2017-10-24T06:14:12.716Z,68.87
2017-10-24T06:15:25.348Z,68.87
2017-10-24T06:16:37.973Z,69.06
2017-10-24T06:17:50.293Z,69.06
2017-10-24T06:19:02.904Z,69.1
2017-10-24T06:20:15.528Z,69.1
2017-10-24T06:21:27.835Z,69.38
2017-10-24T06:22:40.490Z,69.1
2017-10-24T06:23:53.123Z,69.1
2017-10-24T06:25:05.467Z,69.1
2017-10-24T06:26:17.421Z,69.1
2017-10-24T06:27:29.713Z,69.1
2017-10-24T06:28:42.327Z,69
2017-10-24T06:29:54.945Z,68.9
2017-10-24T06:31:06.914Z,69.1
2017-10-24T06:32:19.522Z,68.9
2017-10-24T06:33:31.841Z,68.71
2017-10-24T06:34:44.457Z,68.43
2017-10-24T06:35:56.738Z,68.62
2017-10-24T06:37:08.729Z,68.71
2017-10-24T06:38:21.325Z,68.9
2017-10-24T06:39:33.958Z,68.9
2017-10-24T06:40:46.590Z,68.71
2017-10-24T06:41:58.889Z,68.33
2017-10-24T06:43:11.202Z,68.33
2017-10-24T06:44:23.770Z,68.43
2017-10-24T06:45:36.087Z,68.33
2017-10-24T06:46:48.689Z,68.24
2017-10-24T06:48:01.322Z,68.43
2017-10-24T06:49:13.332Z,68.52
2017-10-24T06:50:25.957Z,68.15
2017-10-24T06:51:37.948Z,68.52
2017-10-24T06:52:49.625Z,68.43
2017-10-24T06:54:01.935Z,67.95
2017-10-24T06:55:14.546Z,68.24
2017-10-24T06:56:27.175Z,67.95
2017-10-24T06:57:39.804Z,68.15
2017-10-24T06:58:52.428Z,67.38
2017-10-24T07:00:08.063Z,67.47
2017-10-24T07:01:20.383Z,67.29
2017-10-24T07:02:32.691Z,67.29
2017-10-24T07:03:44.985Z,67
2017-10-24T07:04:57.278Z,67.19
2017-10-24T07:06:09.550Z,66.72
2017-10-24T07:07:22.173Z,66.72
2017-10-24T07:08:34.808Z,66.94
2017-10-24T07:09:47.431Z,66.75
2017-10-24T07:10:59.736Z,66.46
2017-10-24T07:12:11.712Z,66.66
2017-10-24T07:13:23.998Z,66.46
2017-10-24T07:14:36.619Z,66.18
2017-10-24T07:15:48.920Z,66.27
2017-10-24T07:17:01.213Z,65.89
2017-10-24T07:18:12.843Z,65.61
2017-10-24T07:19:24.839Z,66.08
2017-10-24T07:20:37.126Z,66.08
2017-10-24T07:21:49.443Z,66.08
2017-10-24T07:23:02.075Z,65.99
2017-10-24T07:24:14.075Z,65.8
2017-10-24T07:25:26.704Z,65.89
2017-10-24T07:26:38.037Z,65.89
2017-10-24T07:27:50.365Z,66.27
2017-10-24T07:29:02.669Z,66.18
2017-10-24T07:30:14.993Z,65.99
2017-10-24T07:31:27.653Z,66.66
2017-10-24T07:32:39.624Z,66.37
2017-10-24T07:33:51.927Z,67.03
2017-10-24T07:35:03.935Z,67.22
2017-10-24T07:36:16.239Z,67.41
2017-10-24T07:37:28.209Z,67.41
2017-10-24T07:38:40.826Z,67.22
2017-10-24T07:39:53.469Z,67.22
2017-10-24T07:41:06.098Z,67.32
2017-10-24T07:42:18.752Z,67.7
2017-10-24T07:43:31.389Z,67.7
2017-10-24T07:44:44.026Z,67.51
2017-10-24T07:45:56.026Z,67.51
2017-10-24T07:47:08.369Z,67.89
2017-10-24T07:48:20.974Z,67.8
2017-10-24T07:49:32.982Z,67.61
2017-10-24T07:50:44.954Z,67.8
2017-10-24T07:51:57.575Z,68.08
2017-10-24T07:53:10.210Z,67.61
2017-10-24T07:54:22.852Z,68.08
2017-10-24T07:55:35.508Z,68.08
2017-10-24T07:56:47.809Z,67.51
2017-10-24T07:58:00.436Z,67.32
2017-10-24T07:59:13.058Z,67.51
2017-10-24T08:00:25.408Z,67.64
2017-10-24T08:01:37.425Z,67.41
2017-10-24T08:02:49.410Z,67.51
2017-10-24T08:04:02.038Z,67.51
2017-10-24T08:05:14.682Z,67.61
2017-10-24T08:06:27.322Z,67.74
2017-10-24T08:07:39.651Z,67.61
2017-10-24T08:08:52.277Z,67.61
2017-10-24T08:10:04.923Z,67.35
2017-10-24T08:11:17.227Z,67.07
2017-10-24T08:12:29.223Z,67.45
2017-10-24T08:13:41.532Z,67.26
2017-10-24T08:14:54.181Z,67.45
2017-10-24T08:16:06.163Z,67.45
2017-10-24T08:17:18.455Z,67.26
2017-10-24T08:18:30.766Z,67.07
2017-10-24T08:19:43.089Z,67.35
2017-10-24T08:20:55.379Z,66.97
2017-10-24T08:22:07.367Z,67.07
2017-10-24T08:23:19.674Z,66.59
2017-10-24T08:24:32.320Z,66.69
2017-10-24T08:25:44.325Z,66.59
2017-10-24T08:26:56.298Z,66.5
2017-10-24T08:28:08.281Z,66.4
2017-10-24T08:29:20.275Z,66.21
2017-10-24T08:30:32.261Z,65.92
2017-10-24T08:31:44.589Z,66.21
2017-10-24T08:32:57.191Z,66.02
2017-10-24T08:34:09.831Z,65.55
2017-10-24T08:35:21.777Z,65.96
2017-10-24T08:36:34.065Z,65.77
2017-10-24T08:37:45.723Z,65.86
2017-10-24T08:38:58.044Z,65.96
2017-10-24T08:40:10.377Z,65.96
2017-10-24T08:41:22.997Z,65.86
2017-10-24T08:42:35.628Z,65.77
2017-10-24T08:43:47.609Z,65.96
2017-10-24T08:44:59.924Z,65.39
2017-10-24T08:46:12.555Z,65.77
2017-10-24T08:47:24.879Z,65.77
2017-10-24T08:48:37.192Z,65.48
2017-10-24T08:49:50.653Z,65.89
2017-10-24T08:51:03.298Z,65.52
2017-10-24T08:52:15.286Z,65.52
2017-10-24T08:53:27.613Z,65.42
2017-10-24T08:54:39.936Z,65.42
2017-10-24T08:55:52.273Z,66.09
2017-10-24T08:57:04.926Z,65.89
2017-10-24T08:58:17.245Z,65.8
2017-10-24T08:59:29.803Z,65.33
2017-10-24T09:00:42.133Z,65.33
2017-10-24T09:01:54.758Z,65.04
2017-10-24T09:03:06.460Z,65.55
2017-10-24T09:04:18.748Z,65.17
2017-10-24T09:05:31.067Z,64.69
2017-10-24T09:06:43.381Z,64.78
2017-10-24T09:07:55.993Z,64.69
2017-10-24T09:09:08.334Z,65.17
2017-10-24T09:10:20.681Z,65.93
2017-10-24T09:11:33.324Z,66.12
2017-10-24T09:12:45.649Z,66.31
2017-10-24T09:13:57.308Z,66.92
2017-10-24T09:15:08.650Z,67.4
2017-10-24T09:16:20.957Z,68.82
2017-10-24T09:17:33.625Z,69.87
2017-10-24T09:18:45.948Z,69.87
2017-10-24T09:19:58.266Z,69.21
2017-10-24T09:21:10.236Z,69.49
2017-10-24T09:22:22.857Z,71.41
2017-10-24T09:23:35.181Z,71.41
2017-10-24T09:24:47.499Z,70.64
2017-10-24T09:25:59.810Z,70.29
2017-10-24T09:27:12.128Z,70.67
2017-10-24T09:28:24.445Z,71.53
2017-10-24T09:29:36.761Z,71.34
2017-10-24T09:30:48.765Z,72.87
2017-10-24T09:32:01.396Z,72.78
2017-10-24T09:33:14.025Z,74.59
2017-10-24T09:34:26.034Z,76.31
2017-10-24T09:35:38.022Z,76.21
2017-10-24T09:36:50.016Z,76.35
2017-10-24T09:38:02.321Z,77.11
2017-10-24T09:39:14.975Z,77.59
2017-10-24T09:40:26.981Z,76.25
2017-10-24T09:41:39.610Z,77.11
2017-10-24T09:42:52.250Z,77.5
2017-10-24T09:44:04.582Z,79.12
2017-10-24T09:45:16.879Z,78.74
2017-10-24T09:46:29.186Z,80.65
2017-10-24T09:47:41.509Z,80.27
2017-10-24T09:48:53.832Z,80.84
2017-10-24T09:50:05.503Z,79.79
2017-10-24T09:51:17.828Z,81.89
2017-10-24T09:52:29.814Z,84.38
2017-10-24T09:53:42.457Z,84.76
2017-10-24T09:54:55.093Z,85.14
2017-10-24T09:56:07.091Z,84.76
2017-10-24T09:57:19.733Z,83.86
2017-10-24T09:58:32.100Z,84.62
2017-10-24T09:59:44.451Z,86.43
2017-10-24T10:00:56.760Z,83.28
2017-10-24T10:02:09.405Z,82.56
2017-10-24T10:03:21.713Z,81.79
2017-10-24T10:04:34.009Z,81.32
2017-10-24T10:05:46.327Z,80.74
2017-10-24T10:06:58.350Z,80.93
2017-10-24T10:08:10.355Z,81.51
2017-10-24T10:09:22.341Z,84.09
2017-10-24T10:10:34.390Z,85.71
2017-10-24T10:11:46.366Z,88.29
2017-10-24T10:12:58.676Z,91.54
2017-10-24T10:14:11.012Z,91.93
2017-10-24T10:15:23.618Z,89.34
2017-10-24T10:16:36.236Z,90.01
2017-10-24T10:17:48.560Z,91.54
2017-10-24T10:19:00.227Z,89.44
2017-10-24T10:20:12.890Z,88.77
2017-10-24T10:21:25.190Z,89.82
2017-10-24T10:22:37.820Z,88.58
2017-10-24T10:23:50.135Z,90.68
2017-10-24T10:25:02.476Z,89.68
2017-10-24T10:26:14.780Z,88.63
2017-10-24T10:27:27.426Z,87.87
2017-10-24T10:28:39.420Z,88.73
2017-10-24T10:29:51.736Z,87.39
2017-10-24T10:31:03.379Z,87.87
2017-10-24T10:32:16.011Z,86.43
2017-10-24T10:33:28.330Z,85.86
2017-10-24T10:34:40.646Z,85
2017-10-24T10:35:53.285Z,84.62
2017-10-24T10:37:05.605Z,84.72
2017-10-24T10:38:18.253Z,85.48
2017-10-24T10:39:30.855Z,86.96
2017-10-24T10:40:42.826Z,88.44
2017-10-24T10:41:55.446Z,87.96
2017-10-24T10:43:07.770Z,86.86
2017-10-24T10:44:20.415Z,87.2
2017-10-24T10:45:32.732Z,88.44
2017-10-24T10:46:44.701Z,88.44
2017-10-24T10:47:56.677Z,91.69
2017-10-24T10:49:09.303Z,90.45
2017-10-24T10:50:21.954Z,88.63
2017-10-24T10:51:34.564Z,89.2
2017-10-24T10:52:46.881Z,90.73
2017-10-24T10:53:59.170Z,90.92
2017-10-24T10:55:11.489Z,90.35
2017-10-24T10:56:24.136Z,90.16
2017-10-24T10:57:36.440Z,91.69
2017-10-24T10:58:49.052Z,92.16
2017-10-24T11:00:01.357Z,91.21
2017-10-24T11:01:13.975Z,90.35
2017-10-24T11:02:26.616Z,90.92
2017-10-24T11:03:38.600Z,90.02
2017-10-24T11:04:51.233Z,89.64
2017-10-24T11:06:03.537Z,88.2
2017-10-24T11:07:15.529Z,89.64
2017-10-24T11:08:27.527Z,88.87
2017-10-24T11:09:39.878Z,88.54
2017-10-24T11:10:51.890Z,89.3
2017-10-24T11:12:04.162Z,87.58
2017-10-24T11:13:16.482Z,87.2
2017-10-24T11:14:29.099Z,87.58
2017-10-24T11:15:41.426Z,87.77
2017-10-24T11:16:53.741Z,88.73
2017-10-24T11:18:06.364Z,92.55
2017-10-24T11:19:18.682Z,91.88
2017-10-24T11:20:31.610Z,89.97
2017-10-24T11:21:43.930Z,91.21
2017-10-24T11:22:55.273Z,89.11
2017-10-24T11:24:07.567Z,89.39
2017-10-24T11:25:20.223Z,92.3
2017-10-24T11:26:32.234Z,91.64
2017-10-24T11:27:44.229Z,92.11
2017-10-24T11:28:56.554Z,92.02
2017-10-24T11:30:08.870Z,92.3
2017-10-24T11:31:20.845Z,93.55
2017-10-24T11:32:33.509Z,94.89
2017-10-24T11:33:45.849Z,96.32
2017-10-24T11:34:57.830Z,95.65
2017-10-24T11:36:09.503Z,93.84
2017-10-24T11:37:22.162Z,93.55
2017-10-24T11:38:34.151Z,92.3
2017-10-24T11:39:46.137Z,95.65
2017-10-24T11:40:58.763Z,94.22
2017-10-24T11:42:10.737Z,93.65
2017-10-24T11:43:23.048Z,92.79
2017-10-24T11:44:35.319Z,93.45
2017-10-24T11:45:47.615Z,92.79
2017-10-24T11:47:00.256Z,91.93
2017-10-24T11:48:12.581Z,92.02
2017-10-24T11:49:25.225Z,92.02
2017-10-24T11:50:37.200Z,92.3
2017-10-24T11:51:49.834Z,91.35
2017-10-24T11:53:01.829Z,93.45
2017-10-24T11:54:14.480Z,91.35
2017-10-24T11:55:27.102Z,90.3
2017-10-24T11:56:39.730Z,90.53
2017-10-24T11:57:52.074Z,91.88
2017-10-24T11:59:04.396Z,92.07
2017-10-24T12:00:16.687Z,92.25
2017-10-24T12:01:29.351Z,91.78
2017-10-24T12:02:41.654Z,93.69
2017-10-24T12:03:53.957Z,96.66
2017-10-24T12:05:06.612Z,95.98
2017-10-24T12:06:19.235Z,95.7
2017-10-24T12:07:31.860Z,95.22
2017-10-24T12:08:44.177Z,97.42
2017-10-24T12:09:56.502Z,96.37
2017-10-24T12:11:08.175Z,98.57
2017-10-24T12:12:20.536Z,97.13
2017-10-24T12:13:32.537Z,97.71
2017-10-24T12:14:44.886Z,96.37
2017-10-24T12:15:57.531Z,95.98
2017-10-24T12:17:10.162Z,96.27
2017-10-24T12:18:22.476Z,99.99
2017-10-24T12:19:35.090Z,96.47
2017-10-24T12:20:47.711Z,96.18
2017-10-24T12:22:00.013Z,97.04
2017-10-24T12:23:12.332Z,97.9
2017-10-24T12:24:24.626Z,97.33
2017-10-24T12:25:36.950Z,97.61
2017-10-24T12:26:49.619Z,99.57
2017-10-24T12:28:02.253Z,98.18
2017-10-24T12:29:14.911Z,99.81
2017-10-24T12:30:27.562Z,98.33
2017-10-24T12:31:39.873Z,99.99
2017-10-24T12:32:52.493Z,99.99
2017-10-24T12:34:04.797Z,99.99
2017-10-24T12:35:17.112Z,99.67
2017-10-24T12:36:29.732Z,99.76
2017-10-24T12:37:42.377Z,99.99
2017-10-24T12:38:54.699Z,99.99
2017-10-24T12:40:07.328Z,99.99
2017-10-24T12:41:20.011Z,99.99
2017-10-24T12:42:32.631Z,99.99
2017-10-24T12:43:44.931Z,99.99
2017-10-24T12:44:56.919Z,99.99
2017-10-24T12:46:09.561Z,99.99
2017-10-24T12:47:21.564Z,99.99
2017-10-24T12:48:34.192Z,99.99
2017-10-24T12:49:46.509Z,99.99
2017-10-24T12:50:59.180Z,99.99
2017-10-24T12:52:11.200Z,99.99
2017-10-24T12:53:23.511Z,99.99
2017-10-24T12:54:35.834Z,99.99
2017-10-24T12:55:48.144Z,99.96
2017-10-24T12:57:00.458Z,99.99
2017-10-24T12:58:12.778Z,99.99
2017-10-24T12:59:25.116Z,99.99
2017-10-24T13:00:37.762Z,99.99
2017-10-24T13:01:49.751Z,99.99
2017-10-24T13:03:02.389Z,99.99
2017-10-24T13:04:15.028Z,99.99
2017-10-24T13:05:27.651Z,99.99
2017-10-24T13:06:40.323Z,99.99
2017-10-24T13:07:52.298Z,99.99
2017-10-24T13:09:04.301Z,99.99
2017-10-24T13:10:16.937Z,99.99
2017-10-24T13:11:29.551Z,99.99
2017-10-24T13:12:41.549Z,99.99
2017-10-24T13:13:54.173Z,99.99
2017-10-24T13:15:06.816Z,99.99
2017-10-24T13:16:19.142Z,99.99
2017-10-24T13:17:31.433Z,99.99
2017-10-24T13:18:43.750Z,99.99
2017-10-24T13:19:56.070Z,99.99
2017-10-24T13:21:08.398Z,99.99
2017-10-24T13:22:21.016Z,99.99
2017-10-24T13:23:33.636Z,99.99
2017-10-24T13:24:45.634Z,99.99
2017-10-24T13:25:57.930Z,99.99
2017-10-24T13:27:10.237Z,99.99
2017-10-24T13:28:22.845Z,99.99
2017-10-24T13:29:35.457Z,99.99
2017-10-24T13:30:48.060Z,99.99
2017-10-24T13:32:00.682Z,99.99
2017-10-24T13:33:13.022Z,99.99
2017-10-24T13:34:25.317Z,99.99
2017-10-24T13:35:37.654Z,99.99
2017-10-24T13:36:50.310Z,99.99
2017-10-24T13:38:01.984Z,99.99
2017-10-24T13:39:14.651Z,99.99
2017-10-24T13:40:26.977Z,99.99
2017-10-24T13:41:38.951Z,99.99
2017-10-24T13:42:51.287Z,99.99
2017-10-24T13:44:03.587Z,99.99
2017-10-24T13:45:16.204Z,99.99
2017-10-24T13:46:28.211Z,99.99
2017-10-24T13:47:40.531Z,99.99
2017-10-24T13:48:52.842Z,99.99
2017-10-24T13:50:05.469Z,99.99
2017-10-24T13:51:17.765Z,99.99
2017-10-24T13:52:30.071Z,99.99
2017-10-24T13:53:42.416Z,99.99
2017-10-24T13:54:54.719Z,99.99
2017-10-24T13:56:07.366Z,99.99
2017-10-24T13:57:19.688Z,99.99
2017-10-24T13:58:32.308Z,99.99
2017-10-24T13:59:44.945Z,99.99
2017-10-24T14:00:57.585Z,99.99
2017-10-24T14:02:09.915Z,99.99
2017-10-24T14:03:22.199Z,99.99
2017-10-24T14:04:34.838Z,99.99
2017-10-24T14:05:46.833Z,99.99
2017-10-24T14:06:59.137Z,99.99
2017-10-24T14:08:11.768Z,99.99
2017-10-24T14:09:24.394Z,99.99
2017-10-24T14:10:37.046Z,99.99
2017-10-24T14:11:49.358Z,99.99
2017-10-24T14:13:01.986Z,99.99
2017-10-24T14:14:14.610Z,99.99
2017-10-24T14:15:27.288Z,99.99
2017-10-24T14:16:39.584Z,99.99
2017-10-24T14:17:51.557Z,99.99
2017-10-24T14:19:04.212Z,99.99
2017-10-24T14:20:16.204Z,99.99
2017-10-24T14:21:28.828Z,99.99
2017-10-24T14:22:41.141Z,99.99
2017-10-24T14:23:53.789Z,99.99
2017-10-24T14:25:06.114Z,99.99
2017-10-24T14:26:18.438Z,99.99
2017-10-24T14:27:31.055Z,99.99
2017-10-24T14:28:43.053Z,99.99
2017-10-24T14:29:55.346Z,99.99
2017-10-24T14:31:07.656Z,99.99
2017-10-24T14:32:20.285Z,99.99
2017-10-24T14:33:32.909Z,99.99
2017-10-24T14:34:45.555Z,99.99
2017-10-24T14:35:57.850Z,99.99
2017-10-24T14:37:10.477Z,99.99
2017-10-24T14:38:22.455Z,99.99
2017-10-24T14:39:35.090Z,99.99
2017-10-24T14:40:47.742Z,99.99
2017-10-24T14:42:00.083Z,99.99
2017-10-24T14:43:12.400Z,99.99
2017-10-24T14:44:25.024Z,99.99
2017-10-24T14:45:37.640Z,99.99
2017-10-24T14:46:49.940Z,99.99
2017-10-24T14:48:02.560Z,99.99
2017-10-24T14:49:14.898Z,99.99
2017-10-24T14:50:27.193Z,99.99
2017-10-24T14:51:39.815Z,99.99
2017-10-24T14:52:52.156Z,99.99
2017-10-24T14:54:04.465Z,99.99
2017-10-24T14:55:17.136Z,99.99
2017-10-24T14:56:29.777Z,99.99
2017-10-24T14:57:42.415Z,99.99
2017-10-24T14:58:54.418Z,99.99
2017-10-24T15:00:06.731Z,99.99
2017-10-24T15:01:19.055Z,99.99
2017-10-24T15:02:31.674Z,99.99
2017-10-24T15:03:44.002Z,99.99
2017-10-24T15:04:56.337Z,99.99
2017-10-24T15:06:08.318Z,99.99
2017-10-24T15:07:20.944Z,99.99
2017-10-24T15:08:33.607Z,99.99
2017-10-24T15:09:45.291Z,99.99
2017-10-24T15:10:57.916Z,99.99
2017-10-24T15:12:10.223Z,99.99
2017-10-24T15:13:22.540Z,99.99
2017-10-24T15:14:35.183Z,99.99
2017-10-24T15:15:47.782Z,99.99
2017-10-24T15:17:00.404Z,99.9
2017-10-24T15:18:13.039Z,99.9
2017-10-24T15:19:25.985Z,99.52
2017-10-24T15:20:38.643Z,99.9
2017-10-24T15:21:50.965Z,99.99
2017-10-24T15:23:03.617Z,99.99
2017-10-24T15:24:15.605Z,99.62
2017-10-24T15:25:27.920Z,99.62
2017-10-24T15:26:40.230Z,99.99
2017-10-24T15:27:52.845Z,99.99
2017-10-24T15:29:04.836Z,99.66
2017-10-24T15:30:17.479Z,98.8
2017-10-24T15:31:29.801Z,99.18
2017-10-24T15:32:42.466Z,98.9
2017-10-24T15:33:55.092Z,99.18
2017-10-24T15:35:07.729Z,98.99